Time;durP1;ratioP1;P1;durP2;ratioP2;P2;SDS_P1;SDS_P2;PMS_P1;PMS_P2;Temp;Humidity;BMP_temperature;BMP_pressure;BME280_temperature;BME280_humidity;BME280_pressure;Samples;Min_cycle;Max_cycle;Signal;HPM_P1;HPM_P2
2023/05/08 00:00:33;;;;;;;2.63;1.97;;;7.50;97.30;;;;;;5044099;28;20746;-86
2023/05/08 00:02:58;;;;;;;3.83;2.73;;;7.50;97.30;;;;;;5043732;28;20187;-85
2023/05/08 00:05:24;;;;;;;1.87;1.80;;;7.50;97.30;;;;;;5061932;28;20191;-85
2023/05/08 00:07:51;;;;;;;5.80;3.17;;;7.50;97.30;;;;;;5037676;28;20184;-86
2023/05/08 00:10:16;;;;;;;1.83;1.73;;;7.50;97.30;;;;;;5037814;28;20219;-86
2023/05/08 00:12:42;;;;;;;3.37;3.17;;;7.50;97.30;;;;;;5046734;28;20418;-86
2023/05/08 00:15:08;;;;;;;3.60;3.43;;;7.50;97.30;;;;;;5047521;28;20241;-85
2023/05/08 00:17:33;;;;;;;2.00;1.90;;;7.50;97.30;;;;;;5042883;28;20200;-85
2023/05/08 00:19:59;;;;;;;3.70;2.77;;;7.50;97.30;;;;;;5059376;28;20472;-85
2023/05/08 00:22:24;;;;;;;3.27;2.40;;;7.50;97.30;;;;;;5044817;28;20325;-86
2023/05/08 00:24:50;;;;;;;5.40;3.10;;;7.40;97.30;;;;;;5028460;28;20190;-86
2023/05/08 00:27:15;;;;;;;3.57;2.57;;;7.40;97.30;;;;;;5031762;28;20192;-85
2023/05/08 00:29:41;;;;;;;5.13;3.30;;;7.40;97.30;;;;;;5054406;28;20621;-85
2023/05/08 00:32:07;;;;;;;2.30;2.20;;;7.40;97.30;;;;;;5046350;28;20179;-85
2023/05/08 00:34:33;;;;;;;2.37;2.17;;;7.30;97.30;;;;;;5061721;28;21129;-86
2023/05/08 00:36:58;;;;;;;5.23;3.83;;;7.40;97.30;;;;;;5025878;28;20242;-87
2023/05/08 00:39:24;;;;;;;4.37;3.73;;;7.40;97.30;;;;;;5042001;28;20402;-85
2023/05/08 00:41:49;;;;;;;2.97;2.77;;;7.30;97.30;;;;;;5037933;28;20734;-85
2023/05/08 00:44:15;;;;;;;2.67;2.50;;;7.30;97.30;;;;;;5042907;28;20557;-85
2023/05/08 00:46:41;;;;;;;2.63;2.43;;;7.30;97.30;;;;;;5042477;28;20271;-85
2023/05/08 00:49:10;;;;;;;4.63;3.23;;;7.30;97.30;;;;;;5059271;28;20223;-86
2023/05/08 00:51:35;;;;;;;2.73;2.53;;;7.30;97.30;;;;;;5060873;28;20411;-86
2023/05/08 00:54:02;;;;;;;2.43;2.30;;;7.30;97.30;;;;;;5042378;28;20421;-85
2023/05/08 00:56:29;;;;;;;1.90;1.80;;;7.20;97.30;;;;;;5044090;28;20418;-86
2023/05/08 00:58:55;;;;;;;6.33;2.60;;;7.20;97.30;;;;;;5035760;28;20740;-85
2023/05/08 01:01:20;;;;;;;2.20;1.93;;;7.20;97.30;;;;;;5033763;28;20970;-85
2023/05/08 01:03:46;;;;;;;4.00;2.73;;;7.10;97.30;;;;;;5040219;28;20414;-85
2023/05/08 01:06:12;;;;;;;2.63;2.30;;;7.10;97.30;;;;;;5060383;28;20358;-85
2023/05/08 01:08:38;;;;;;;5.03;3.07;;;7.10;97.30;;;;;;5041679;28;20992;-85
2023/05/08 01:11:03;;;;;;;3.13;2.93;;;7.10;97.30;;;;;;5033951;28;20180;-85
2023/05/08 01:13:35;;;;;;;3.83;3.73;;;7.10;97.30;;;;;;5041801;28;20419;-85
2023/05/08 01:16:16;;;;;;;2.07;1.93;;;7.00;97.30;;;;;;5042140;28;20187;-85
2023/05/08 01:18:59;;;;;;;5.73;3.03;;;7.00;97.30;;;;;;5033198;28;20441;-85
2023/05/08 01:21:39;;;;;;;2.23;2.03;;;7.00;97.30;;;;;;5041162;28;20427;-87
2023/05/08 01:24:10;;;;;;;2.00;1.90;;;6.90;97.30;;;;;;5045115;28;21005;-85
2023/05/08 01:27:31;;;;;;;1.83;1.73;;;6.90;97.30;;;;;;5045315;28;20437;-86
2023/05/08 01:30:18;;;;;;;2.37;2.00;;;6.90;97.30;;;;;;5010941;28;20461;-85
2023/05/08 01:32:54;;;;;;;2.00;1.93;;;6.90;97.30;;;;;;5025440;28;20418;-85
2023/05/08 01:35:46;;;;;;;2.60;2.13;;;6.80;97.30;;;;;;5044306;28;20426;-85
2023/05/08 01:38:29;;;;;;;2.80;2.60;;;6.80;97.30;;;;;;5044882;28;20436;-85
2023/05/08 01:41:23;;;;;;;3.10;2.90;;;6.80;97.30;;;;;;5032095;28;20461;-87
2023/05/08 01:44:08;;;;;;;5.23;3.00;;;6.70;97.30;;;;;;5027038;28;20422;-85
2023/05/08 01:46:33;;;;;;;2.17;2.00;;;6.70;97.30;;;;;;5043763;28;20442;-85
2023/05/08 01:49:16;;;;;;;5.30;3.70;;;6.70;97.30;;;;;;5044503;28;20602;-85
2023/05/08 01:51:52;;;;;;;3.57;2.63;;;6.70;97.30;;;;;;5032790;28;20596;-85
2023/05/08 01:54:23;;;;;;;2.93;2.73;;;6.60;97.30;;;;;;5041220;28;20415;-86
2023/05/08 01:56:51;;;;;;;4.60;2.33;;;6.60;97.30;;;;;;5044837;28;20829;-85
2023/05/08 01:59:22;;;;;;;2.47;2.27;;;6.60;97.30;;;;;;5044531;28;20880;-87
2023/05/08 02:01:51;;;;;;;1.50;1.40;;;6.50;97.30;;;;;;5030656;28;20429;-85
2023/05/08 02:04:18;;;;;;;3.80;3.60;;;6.50;97.30;;;;;;5050777;28;20510;-86
2023/05/08 02:06:44;;;;;;;2.60;2.43;;;6.50;97.30;;;;;;5033357;28;20454;-85
2023/05/08 02:09:10;;;;;;;5.40;2.70;;;6.40;97.30;;;;;;5041013;28;20516;-87
2023/05/08 02:11:38;;;;;;;2.43;2.23;;;6.40;97.30;;;;;;5061166;28;20229;-86
2023/05/08 02:14:06;;;;;;;2.43;2.23;;;6.40;97.30;;;;;;5034715;28;20855;-86
2023/05/08 02:16:32;;;;;;;4.27;4.00;;;6.40;97.30;;;;;;5057429;28;20453;-85
2023/05/08 02:19:00;;;;;;;3.90;2.20;;;6.40;97.30;;;;;;5041026;28;20450;-87
2023/05/08 02:21:27;;;;;;;9.93;4.70;;;6.30;97.30;;;;;;5040922;28;20433;-85
2023/05/08 02:23:55;;;;;;;1.93;1.83;;;6.30;97.30;;;;;;5036606;28;20421;-85
2023/05/08 02:26:22;;;;;;;14.87;3.27;;;6.30;97.30;;;;;;5036024;28;20624;-85
2023/05/08 02:28:49;;;;;;;10.57;2.80;;;6.20;97.30;;;;;;5039489;28;20465;-84
2023/05/08 02:31:15;;;;;;;4.97;2.60;;;6.20;97.30;;;;;;5040641;28;20417;-88
2023/05/08 02:33:42;;;;;;;3.17;2.60;;;6.20;97.30;;;;;;5043903;28;20431;-86
2023/05/08 02:36:10;;;;;;;4.40;2.90;;;6.20;97.30;;;;;;5031090;28;20433;-85
2023/05/08 02:38:38;;;;;;;4.40;3.00;;;6.20;97.30;;;;;;5052596;28;20472;-86
2023/05/08 02:41:07;;;;;;;4.27;3.83;;;6.10;97.30;;;;;;5044220;28;20497;-85
2023/05/08 02:43:33;;;;;;;3.20;3.00;;;6.10;97.30;;;;;;5034506;28;20427;-85
2023/05/08 02:46:19;;;;;;;2.87;2.67;;;6.10;97.30;;;;;;5046957;28;20846;-82
2023/05/08 02:48:55;;;;;;;2.10;1.77;;;6.10;97.30;;;;;;5040924;28;20454;-85
2023/05/08 02:51:42;;;;;;;2.77;2.57;;;6.00;97.30;;;;;;5040790;28;20504;-86
2023/05/08 02:54:20;;;;;;;2.70;2.50;;;6.00;97.30;;;;;;5062296;28;20424;-86
2023/05/08 02:57:09;;;;;;;2.60;2.40;;;6.00;97.30;;;;;;5032467;28;20423;-85
2023/05/08 02:59:38;;;;;;;3.23;2.93;;;5.90;97.30;;;;;;5040509;28;20536;-85
2023/05/08 03:02:09;;;;;;;2.30;2.10;;;5.90;97.30;;;;;;5040486;28;20422;-85
2023/05/08 03:04:40;;;;;;;4.93;2.90;;;5.90;97.30;;;;;;5059497;28;20960;-85
2023/05/08 03:07:06;;;;;;;3.10;2.63;;;5.90;97.30;;;;;;5045818;28;20423;-85
2023/05/08 03:09:40;;;;;;;3.40;3.20;;;5.80;97.30;;;;;;5058244;28;20457;-85
2023/05/08 03:12:11;;;;;;;4.60;3.00;;;5.80;97.30;;;;;;5037178;28;20426;-86
2023/05/08 03:14:44;;;;;;;4.83;1.73;;;5.80;97.30;;;;;;5041280;28;20948;-86
2023/05/08 03:17:14;;;;;;;3.17;2.97;;;5.80;97.30;;;;;;5043787;28;21012;-85
2023/05/08 03:19:43;;;;;;;1.93;1.83;;;5.80;97.30;;;;;;5059078;28;20421;-85
2023/05/08 03:22:10;;;;;;;2.40;2.20;;;5.80;97.30;;;;;;5037068;28;20469;-85
2023/05/08 03:24:37;;;;;;;4.20;2.50;;;5.80;97.30;;;;;;5058614;28;20414;-85
2023/05/08 03:27:04;;;;;;;4.60;3.00;;;5.80;97.30;;;;;;5043689;28;20432;-85
2023/05/08 03:29:32;;;;;;;2.33;2.13;;;5.70;97.30;;;;;;5042082;28;20465;-85
2023/05/08 03:32:01;;;;;;;5.40;3.57;;;5.70;97.30;;;;;;5036724;28;20845;-85
2023/05/08 03:34:28;;;;;;;2.17;2.00;;;5.70;97.30;;;;;;5051070;28;20415;-85
2023/05/08 03:36:54;;;;;;;4.03;3.53;;;5.70;97.30;;;;;;5039767;28;20414;-85
2023/05/08 03:39:20;;;;;;;3.10;2.57;;;5.70;97.30;;;;;;5057069;28;20470;-87
2023/05/08 03:41:46;;;;;;;4.73;4.10;;;5.70;97.30;;;;;;5036118;28;20431;-86
2023/05/08 03:44:13;;;;;;;2.57;2.37;;;5.70;97.30;;;;;;5029966;28;20422;-87
2023/05/08 03:46:41;;;;;;;2.53;2.33;;;5.70;97.30;;;;;;5060196;28;20433;-85
2023/05/08 03:49:07;;;;;;;3.40;3.20;;;5.70;97.30;;;;;;5041184;28;20465;-87
2023/05/08 03:51:41;;;;;;;3.30;3.10;;;5.70;97.30;;;;;;5035628;28;20513;-86
2023/05/08 03:54:06;;;;;;;3.00;2.80;;;5.70;97.30;;;;;;5047167;28;20432;-85
2023/05/08 03:56:33;;;;;;;2.83;2.70;;;5.70;97.30;;;;;;5045414;28;20417;-85
2023/05/08 03:59:16;;;;;;;11.73;3.20;;;5.70;97.30;;;;;;5043404;28;20303;-86
2023/05/08 04:01:58;;;;;;;7.60;4.10;;;5.70;97.30;;;;;;5043493;28;20450;-85
2023/05/08 04:04:36;;;;;;;4.70;3.90;;;5.70;97.30;;;;;;5057074;28;20815;-86
2023/05/08 04:07:18;;;;;;;3.90;2.80;;;5.70;97.30;;;;;;5044119;28;20501;-86
2023/05/08 04:09:50;;;;;;;10.93;4.00;;;5.70;97.30;;;;;;5043599;28;20894;-86
2023/05/08 04:12:22;;;;;;;2.37;2.10;;;5.70;97.30;;;;;;5043651;28;20852;-86
2023/05/08 04:15:00;;;;;;;3.53;3.20;;;5.70;97.30;;;;;;5046860;28;20425;-85
2023/05/08 04:17:35;;;;;;;2.73;2.53;;;5.80;97.30;;;;;;5056433;28;20509;-86
2023/05/08 04:20:03;;;;;;;2.27;2.10;;;5.80;97.30;;;;;;5046666;28;20738;-86
2023/05/08 04:22:32;;;;;;;2.70;1.97;;;5.80;97.30;;;;;;5045743;28;20621;-86
2023/05/08 04:25:01;;;;;;;6.23;3.50;;;5.80;97.30;;;;;;5039565;28;20449;-86
2023/05/08 04:27:28;;;;;;;4.10;2.80;;;5.90;97.30;;;;;;5032364;28;20433;-86
2023/05/08 04:29:55;;;;;;;3.17;3.00;;;5.90;97.30;;;;;;5046202;28;20472;-85
2023/05/08 04:32:21;;;;;;;4.93;3.13;;;5.90;97.30;;;;;;5046274;28;20414;-86
2023/05/08 04:34:47;;;;;;;7.30;5.00;;;5.90;97.30;;;;;;5053668;28;20413;-86
2023/05/08 04:37:27;;;;;;;2.30;1.90;;;6.00;97.30;;;;;;5067511;28;20516;-85
2023/05/08 04:39:53;;;;;;;1.97;1.87;;;6.00;97.30;;;;;;5083687;23;20235;-87
2023/05/08 04:42:19;;;;;;;3.40;3.23;;;6.00;97.30;;;;;;5034784;28;20785;-88
2023/05/08 04:44:46;;;;;;;3.70;3.50;;;6.10;97.30;;;;;;5026535;28;20207;-87
2023/05/08 04:47:12;;;;;;;3.40;2.70;;;6.10;97.30;;;;;;5034676;28;20421;-88
2023/05/08 04:49:37;;;;;;;2.40;2.20;;;6.20;97.30;;;;;;5024687;28;20963;-87
2023/05/08 04:52:03;;;;;;;3.43;3.27;;;6.20;97.30;;;;;;5022643;28;20795;-88
2023/05/08 04:54:28;;;;;;;4.90;2.60;;;6.30;97.30;;;;;;5023343;28;20172;-88
2023/05/08 04:56:54;;;;;;;2.30;2.10;;;6.40;97.30;;;;;;5040275;28;20214;-88
2023/05/08 04:59:20;;;;;;;4.47;2.93;;;6.40;97.30;;;;;;5022363;28;20222;-87
2023/05/08 05:01:46;;;;;;;4.83;3.43;;;6.50;97.30;;;;;;5023312;28;20265;-88
2023/05/08 05:04:12;;;;;;;3.90;2.23;;;6.60;97.30;;;;;;5016318;28;20184;-88
2023/05/08 05:06:37;;;;;;;3.50;3.20;;;6.60;97.30;;;;;;5021291;28;20414;-88
2023/05/08 05:09:04;;;;;;;3.20;2.30;;;6.70;97.30;;;;;;5022316;28;20711;-88
2023/05/08 05:11:29;;;;;;;3.57;3.37;;;6.80;97.30;;;;;;5021128;28;20631;-88
2023/05/08 05:13:55;;;;;;;3.63;2.27;;;6.80;97.30;;;;;;5011007;28;20417;-90
2023/05/08 05:16:20;;;;;;;1.97;1.87;;;6.90;97.30;;;;;;5043812;28;20175;-87
2023/05/08 05:18:46;;;;;;;8.23;4.17;;;7.00;97.30;;;;;;5023247;28;20204;-88
2023/05/08 05:21:12;;;;;;;7.97;4.03;;;7.10;97.30;;;;;;5020485;28;20218;-88
2023/05/08 05:23:37;;;;;;;3.97;3.70;;;7.10;97.30;;;;;;5024708;28;20263;-87
2023/05/08 05:26:03;;;;;;;3.13;2.80;;;7.20;97.30;;;;;;5022447;28;20445;-88
2023/05/08 05:28:28;;;;;;;3.33;2.67;;;7.30;97.30;;;;;;5022837;28;20233;-88
2023/05/08 05:30:54;;;;;;;2.77;2.57;;;7.40;97.30;;;;;;5026163;28;20271;-88
2023/05/08 05:33:19;;;;;;;2.80;2.53;;;7.50;97.30;;;;;;5036288;28;20226;-87
2023/05/08 05:35:45;;;;;;;4.20;2.37;;;7.50;97.30;;;;;;5022222;28;20215;-88
2023/05/08 05:38:10;;;;;;;3.53;3.10;;;7.60;97.30;;;;;;5022444;28;20176;-88
2023/05/08 05:40:36;;;;;;;3.33;2.87;;;7.70;97.30;;;;;;5039252;28;20235;-88
2023/05/08 05:43:01;;;;;;;3.00;2.80;;;7.80;97.30;;;;;;5022111;28;20184;-89
2023/05/08 05:45:27;;;;;;;5.90;2.53;;;7.80;97.30;;;;;;5046280;28;20200;-91
2023/05/08 05:47:52;;;;;;;3.57;2.60;;;7.90;97.30;;;;;;5043393;28;20168;-91
2023/05/08 05:50:18;;;;;;;4.70;3.70;;;8.00;97.30;;;;;;5043555;28;20200;-89
2023/05/08 05:52:45;;;;;;;5.63;3.43;;;8.00;97.30;;;;;;5032281;28;20291;-89
2023/05/08 05:55:10;;;;;;;4.00;2.27;;;8.20;97.30;;;;;;5044637;28;20423;-88
2023/05/08 05:57:36;;;;;;;4.50;2.80;;;8.20;97.30;;;;;;5021834;28;20184;-89
2023/05/08 06:00:03;;;;;;;2.50;2.30;;;8.30;97.30;;;;;;5021927;28;20585;-88
2023/05/08 06:02:29;;;;;;;7.60;4.07;;;8.40;97.30;;;;;;5014122;28;20482;-87
2023/05/08 06:04:55;;;;;;;3.20;3.00;;;8.40;97.30;;;;;;5025032;28;20421;-87
2023/05/08 06:07:20;;;;;;;4.93;2.60;;;8.50;97.30;;;;;;5015283;28;20185;-88
2023/05/08 06:09:46;;;;;;;3.20;2.90;;;8.60;97.30;;;;;;5021157;28;20215;-90
2023/05/08 06:12:12;;;;;;;2.90;2.70;;;8.60;97.30;;;;;;5022339;28;20188;-88
2023/05/08 06:14:37;;;;;;;3.37;2.13;;;8.70;97.30;;;;;;5021963;28;20510;-88
2023/05/08 06:17:03;;;;;;;3.23;3.03;;;8.80;97.30;;;;;;5013681;28;20188;-88
2023/05/08 06:19:28;;;;;;;7.70;3.87;;;8.90;97.30;;;;;;5021466;28;20213;-88
2023/05/08 06:21:54;;;;;;;4.90;3.40;;;9.00;97.30;;;;;;5025057;28;20180;-88
2023/05/08 06:24:19;;;;;;;4.07;3.00;;;9.10;97.30;;;;;;5020709;28;20192;-88
2023/05/08 06:26:48;;;;;;;10.57;3.60;;;9.30;97.30;;;;;;5022091;28;20192;-88
2023/05/08 06:29:13;;;;;;;2.30;2.10;;;9.40;97.30;;;;;;5018837;28;20225;-88
2023/05/08 06:31:39;;;;;;;3.43;3.23;;;9.50;97.30;;;;;;5023815;28;20526;-89
2023/05/08 06:34:04;;;;;;;3.40;3.20;;;9.60;97.30;;;;;;5033562;28;20177;-91
2023/05/08 06:36:30;;;;;;;3.90;3.40;;;9.60;97.30;;;;;;5047689;28;20160;-91
2023/05/08 06:38:56;;;;;;;2.57;2.40;;;9.80;97.30;;;;;;5042531;28;20195;-91
2023/05/08 06:41:21;;;;;;;2.50;2.30;;;9.90;97.30;;;;;;5030372;28;20630;-88
2023/05/08 06:43:47;;;;;;;4.63;3.20;;;10.00;97.30;;;;;;5015457;28;20231;-88
2023/05/08 06:46:12;;;;;;;4.40;2.67;;;10.10;97.30;;;;;;5024808;28;20191;-87
2023/05/08 06:48:38;;;;;;;10.00;4.23;;;10.30;97.30;;;;;;5023194;28;20179;-88
2023/05/08 06:51:03;;;;;;;10.63;4.70;;;10.30;97.30;;;;;;5021452;28;20652;-88
2023/05/08 06:53:29;;;;;;;5.93;4.03;;;10.40;97.30;;;;;;5021167;28;20196;-88
2023/05/08 06:55:57;;;;;;;5.63;2.70;;;10.50;97.30;;;;;;5024662;28;20179;-88
2023/05/08 06:58:23;;;;;;;6.30;3.33;;;10.70;97.30;;;;;;5013702;28;20173;-87
2023/05/08 07:00:48;;;;;;;8.03;4.00;;;10.80;97.30;;;;;;5020590;28;20483;-88
2023/05/08 07:03:14;;;;;;;8.57;3.10;;;10.90;97.30;;;;;;5021065;28;20654;-87
2023/05/08 07:05:40;;;;;;;6.03;3.83;;;11.00;97.30;;;;;;5022155;28;20214;-88
2023/05/08 07:08:05;;;;;;;3.73;3.10;;;11.10;97.30;;;;;;5019944;28;20929;-88
2023/05/08 07:10:31;;;;;;;2.40;2.20;;;11.30;97.30;;;;;;5037612;28;20230;-88
2023/05/08 07:12:56;;;;;;;2.37;2.10;;;11.40;97.00;;;;;;5009258;28;20181;-88
2023/05/08 07:15:22;;;;;;;5.83;3.63;;;11.50;96.80;;;;;;5015487;28;20635;-88
2023/05/08 07:17:55;;;;;;;2.00;1.90;;;11.60;96.20;;;;;;5024063;28;20179;-89
2023/05/08 07:20:21;;;;;;;4.53;2.63;;;11.60;96.20;;;;;;5025005;28;20197;-88
2023/05/08 07:22:47;;;;;;;5.87;2.87;;;11.60;96.30;;;;;;5017905;28;20453;-87
2023/05/08 07:25:12;;;;;;;3.20;2.90;;;11.70;96.50;;;;;;5019640;28;20922;-88
2023/05/08 07:27:38;;;;;;;8.40;4.33;;;11.80;95.90;;;;;;5025149;28;20255;-88
2023/05/08 07:30:04;;;;;;;6.53;2.70;;;12.00;96.40;;;;;;5032184;28;20255;-88
2023/05/08 07:32:32;;;;;;;6.93;3.17;;;12.10;95.60;;;;;;5024826;28;20180;-88
2023/05/08 07:34:58;;;;;;;2.40;1.83;;;12.20;95.40;;;;;;5003867;28;20429;-88
2023/05/08 07:37:23;;;;;;;2.47;1.90;;;12.20;95.10;;;;;;5027979;28;20418;-88
2023/05/08 07:39:49;;;;;;;2.80;2.30;;;12.20;95.00;;;;;;5034082;28;20235;-89
2023/05/08 07:42:16;;;;;;;5.03;2.47;;;12.20;94.40;;;;;;5041758;28;20191;-88
2023/05/08 07:44:42;;;;;;;2.50;2.30;;;12.30;95.50;;;;;;5036445;28;20667;-88
2023/05/08 07:47:08;;;;;;;2.40;2.23;;;12.50;95.20;;;;;;5038713;28;20430;-88
2023/05/08 07:49:33;;;;;;;2.27;2.03;;;12.60;95.20;;;;;;5031224;28;20253;-89
2023/05/08 07:52:05;;;;;;;2.57;2.40;;;12.80;95.80;;;;;;5044036;28;20597;-88
2023/05/08 07:54:36;;;;;;;3.50;3.30;;;13.00;94.70;;;;;;5043523;28;20172;-88
2023/05/08 07:57:05;;;;;;;2.33;2.10;;;13.00;94.40;;;;;;5036125;28;20489;-88
2023/05/08 08:00:16;;;;;;;;;;;;;;;;;;;;;
2023/05/08 08:02:44;;;;;;;3.03;2.83;;;13.20;93.20;;;;;;5008788;28;20584;-88
2023/05/08 08:05:16;;;;;;;3.13;2.77;;;13.30;92.80;;;;;;4997926;28;20460;-88
2023/05/08 08:08:05;;;;;;;2.73;2.53;;;13.40;93.20;;;;;;5007968;28;20420;-89
2023/05/08 08:10:46;;;;;;;;;;;;;;;;;;;;;
2023/05/08 08:13:16;;;;;;;2.90;2.30;;;13.50;92.90;;;;;;5002383;28;20462;-88
2023/05/08 08:15:54;;;;;;;5.10;3.53;;;13.60;94.30;;;;;;4994358;28;20427;-88
2023/05/08 08:18:26;;;;;;;2.83;2.63;;;13.70;92.80;;;;;;4994635;28;20486;-88
2023/05/08 08:20:54;;;;;;;4.47;3.57;;;13.60;92.70;;;;;;4994301;28;20454;-88
2023/05/08 08:23:26;;;;;;;2.23;2.03;;;13.50;93.10;;;;;;4994873;28;20434;-88
2023/05/08 08:26:05;;;;;;;3.47;2.80;;;13.40;93.00;;;;;;4994546;28;20512;-88
2023/05/08 08:28:37;;;;;;;4.20;3.63;;;13.40;94.20;;;;;;5029160;28;21013;-87
2023/05/08 08:31:24;;;;;;;4.53;2.80;;;13.60;94.60;;;;;;5035667;28;20422;-89
2023/05/08 08:33:56;;;;;;;5.53;3.37;;;13.80;94.10;;;;;;5045666;28;20529;-88
2023/05/08 08:36:34;;;;;;;2.40;2.20;;;14.00;93.50;;;;;;5045072;28;20839;-88
2023/05/08 08:39:05;;;;;;;5.40;3.60;;;14.10;92.00;;;;;;5045975;28;20522;-90
2023/05/08 08:41:34;;;;;;;8.80;3.43;;;14.10;92.70;;;;;;5046840;28;20490;-88
2023/05/08 08:44:06;;;;;;;2.20;2.07;;;14.20;92.60;;;;;;5043528;28;20429;-88
2023/05/08 08:46:45;;;;;;;4.20;2.63;;;14.20;92.50;;;;;;5043406;28;20487;-88
2023/05/08 08:49:45;;;;;;;3.10;2.90;;;14.30;92.00;;;;;;5032717;28;20526;-88
2023/05/08 08:52:54;;;;;;;3.33;2.50;;;14.30;92.10;;;;;;4941439;29;20459;-88
2023/05/08 08:55:59;;;;;;;9.17;2.67;;;14.30;92.90;;;;;;5037646;28;20501;-90
2023/05/08 08:58:45;;;;;;;2.50;2.30;;;14.40;91.60;;;;;;5055242;28;20795;-88
2023/05/08 09:01:43;;;;;;;7.00;2.77;;;14.50;92.20;;;;;;5032641;28;20768;-88
2023/05/08 09:04:15;;;;;;;3.80;2.20;;;14.60;92.00;;;;;;5031796;28;20471;-89
2023/05/08 09:07:04;;;;;;;4.83;2.87;;;14.60;91.20;;;;;;5043840;28;20421;-89
2023/05/08 09:09:44;;;;;;;5.27;2.43;;;14.70;91.40;;;;;;5037358;28;20473;-89
2023/05/08 09:12:15;;;;;;;4.70;3.37;;;14.90;92.20;;;;;;5026200;28;20446;-88
2023/05/08 09:14:43;;;;;;;4.40;2.53;;;15.10;91.20;;;;;;5042628;28;20499;-89
2023/05/08 09:17:15;;;;;;;2.73;2.13;;;15.10;90.10;;;;;;5037798;28;20415;-89
2023/05/08 09:19:54;;;;;;;2.77;2.47;;;15.20;89.70;;;;;;5039070;28;20437;-89
2023/05/08 09:22:46;;;;;;;5.20;3.40;;;15.30;90.80;;;;;;5042399;28;20433;-89
2023/05/08 09:25:15;;;;;;;2.80;2.23;;;15.30;88.40;;;;;;5053527;28;20445;-90
2023/05/08 09:27:45;;;;;;;3.17;3.00;;;15.30;88.90;;;;;;5034526;28;20465;-89
2023/05/08 09:30:14;;;;;;;3.07;2.90;;;15.50;89.50;;;;;;5053733;28;20526;-88
2023/05/08 09:32:46;;;;;;;1.80;1.73;;;15.70;87.60;;;;;;5045436;28;20817;-88
2023/05/08 09:35:35;;;;;;;1.67;1.57;;;15.80;88.30;;;;;;5042545;28;20843;-87
2023/05/08 09:38:04;;;;;;;4.27;4.00;;;15.80;85.70;;;;;;5033546;28;20509;-88
2023/05/08 09:41:04;;;;;;;2.43;2.00;;;15.80;86.10;;;;;;5037557;28;20479;-86
2023/05/08 09:43:33;;;;;;;3.73;2.53;;;15.80;85.80;;;;;;5034292;28;20496;-89
2023/05/08 09:46:25;;;;;;;1.30;1.30;;;15.90;86.60;;;;;;5041188;28;20442;-90
2023/05/08 09:49:16;;;;;;;2.60;2.33;;;16.10;86.60;;;;;;5027161;28;20453;-89
2023/05/08 09:52:06;;;;;;;3.00;2.47;;;16.30;87.10;;;;;;5033999;28;20425;-89
2023/05/08 09:54:56;;;;;;;3.10;2.13;;;16.50;86.00;;;;;;5034998;28;20805;-91
2023/05/08 09:58:14;;;;;;;3.03;2.00;;;16.60;84.90;;;;;;5024383;28;20442;-90
2023/05/08 10:01:04;;;;;;;;;;;;;;;;;;;;;
2023/05/08 10:03:56;;;;;;;1.40;1.30;;;16.80;85.10;;;;;;4934358;29;20422;-89
2023/05/08 10:06:27;;;;;;;4.23;3.10;;;17.10;86.00;;;;;;5032428;28;20506;-89
2023/05/08 10:09:26;;;;;;;6.00;2.47;;;17.20;84.70;;;;;;5037931;28;20446;-88
2023/05/08 10:11:54;;;;;;;2.40;1.80;;;17.30;82.90;;;;;;5039483;28;20424;-89
2023/05/08 10:14:24;;;;;;;2.13;1.77;;;17.20;83.00;;;;;;5041646;28;20418;-88
2023/05/08 10:16:58;;;;;;;2.70;2.03;;;17.20;83.80;;;;;;5040519;28;20429;-88
2023/05/08 10:19:35;;;;;;;2.80;2.17;;;17.10;83.00;;;;;;5037662;28;20817;-89
2023/05/08 10:22:34;;;;;;;4.70;2.60;;;17.20;83.00;;;;;;5040846;28;20928;-89
2023/05/08 10:25:16;;;;;;;4.53;2.70;;;17.40;82.10;;;;;;5038905;28;20450;-88
2023/05/08 10:28:22;;;;;;;2.17;2.03;;;17.30;81.40;;;;;;5038437;28;20435;-89
2023/05/08 10:30:56;;;;;;;2.37;2.17;;;17.30;81.30;;;;;;5030508;28;20499;-90
2023/05/08 10:33:42;;;;;;;4.30;1.80;;;17.50;82.60;;;;;;5036339;28;20426;-89
2023/05/08 10:36:15;;;;;;;1.33;1.23;;;17.50;81.30;;;;;;5029003;28;20926;-89
2023/05/08 10:41:10;;;;;;;3.23;1.83;;;17.80;80.70;;;;;;5054281;28;20462;-84
2023/05/08 10:43:40;;;;;;;1.27;1.20;;;17.90;80.40;;;;;;5024808;28;20458;-84
2023/05/08 10:46:16;;;;;;;4.70;2.53;;;17.90;79.20;;;;;;5032191;28;20421;-85
2023/05/08 10:48:55;;;;;;;2.03;1.93;;;18.00;80.70;;;;;;5037729;28;20421;-84
2023/05/08 10:51:46;;;;;;;2.53;1.30;;;18.10;79.90;;;;;;5064332;28;20478;-84
2023/05/08 10:54:33;;;;;;;1.20;1.10;;;18.30;79.70;;;;;;5039982;28;20822;-84
2023/05/08 10:57:10;;;;;;;3.20;2.27;;;18.40;79.70;;;;;;5047010;28;20798;-85
2023/05/08 10:59:39;;;;;;;2.50;1.80;;;18.60;79.10;;;;;;5046216;28;20588;-85
2023/05/08 11:02:06;;;;;;;1.83;1.73;;;18.90;80.10;;;;;;5043987;28;20860;-84
2023/05/08 11:04:32;;;;;;;1.27;1.17;;;19.00;79.40;;;;;;5042604;28;20426;-84
2023/05/08 11:06:58;;;;;;;1.67;1.63;;;19.10;76.60;;;;;;5049178;28;20512;-84
2023/05/08 11:09:42;;;;;;;1.70;1.60;;;18.90;76.70;;;;;;5050559;28;20452;-85
2023/05/08 11:12:15;;;;;;;2.90;1.73;;;18.90;77.60;;;;;;5064797;28;20225;-87
2023/05/08 11:14:43;;;;;;;1.40;1.30;;;18.90;77.30;;;;;;5046947;28;20948;-85
2023/05/08 11:17:09;;;;;;;1.87;1.47;;;19.10;77.80;;;;;;5039280;28;20422;-86
2023/05/08 11:19:36;;;;;;;1.70;1.60;;;19.30;77.20;;;;;;5046779;28;20845;-86
2023/05/08 11:22:22;;;;;;;1.60;1.40;;;19.60;77.60;;;;;;5049587;28;20422;-87
2023/05/08 11:24:57;;;;;;;3.47;2.10;;;19.80;76.10;;;;;;5058002;28;20488;-85
2023/05/08 11:27:40;;;;;;;1.93;1.80;;;20.00;75.30;;;;;;5043659;28;20434;-85
2023/05/08 11:30:34;;;;;;;1.73;1.63;;;19.90;76.90;;;;;;5049911;28;20555;-87
2023/05/08 11:33:03;;;;;;;1.50;1.27;;;20.10;76.60;;;;;;5047547;28;20430;-84
2023/05/08 11:35:49;;;;;;;1.20;1.13;;;20.20;74.30;;;;;;5065200;28;20421;-85
2023/05/08 11:38:20;;;;;;;1.73;1.60;;;20.10;72.90;;;;;;5036433;28;20484;-84
2023/05/08 11:40:48;;;;;;;2.13;1.40;;;20.20;76.50;;;;;;5044041;28;20477;-84
2023/05/08 11:43:30;;;;;;;1.77;1.73;;;20.40;75.40;;;;;;5047244;28;20492;-87
2023/05/08 11:46:00;;;;;;;1.50;1.40;;;20.50;74.50;;;;;;5046978;28;20433;-86
2023/05/08 11:48:25;;;;;;;1.83;1.47;;;20.60;74.90;;;;;;5046585;28;20799;-87
2023/05/08 11:50:52;;;;;;;2.13;2.00;;;20.70;74.70;;;;;;5045197;28;20466;-86
2023/05/08 11:53:17;;;;;;;1.93;1.83;;;20.80;75.60;;;;;;5043373;28;20186;-87
2023/05/08 11:55:47;;;;;;;1.30;1.20;;;20.80;76.40;;;;;;5049044;28;20421;-87
2023/05/08 11:58:15;;;;;;;2.43;2.10;;;20.90;77.20;;;;;;5034591;28;20189;-87
2023/05/08 12:00:43;;;;;;;1.50;1.40;;;21.00;75.30;;;;;;5050022;28;20444;-86
2023/05/08 12:03:13;;;;;;;2.20;1.50;;;21.10;74.40;;;;;;5044639;28;20454;-85
2023/05/08 12:05:39;;;;;;;1.40;1.30;;;21.10;74.40;;;;;;5043648;28;20440;-86
2023/05/08 12:08:08;;;;;;;1.90;1.80;;;21.10;76.00;;;;;;5064392;28;20414;-86
2023/05/08 12:10:45;;;;;;;1.60;1.50;;;21.10;74.40;;;;;;5064445;28;20937;-87
2023/05/08 12:13:18;;;;;;;1.93;1.83;;;21.10;74.10;;;;;;5030547;28;20429;-87
2023/05/08 12:15:49;;;;;;;1.33;1.20;;;21.30;73.60;;;;;;5046882;28;20798;-87
2023/05/08 12:18:16;;;;;;;1.90;1.57;;;21.50;74.50;;;;;;5035855;28;20429;-86
2023/05/08 12:20:42;;;;;;;9.37;1.60;;;21.60;73.00;;;;;;5043193;28;20478;-86
2023/05/08 12:23:09;;;;;;;1.90;1.73;;;21.60;73.40;;;;;;5046210;28;20544;-87
2023/05/08 12:25:39;;;;;;;1.80;1.73;;;21.60;73.40;;;;;;5055101;28;20439;-86
2023/05/08 12:28:09;;;;;;;1.53;1.47;;;21.50;73.60;;;;;;5044217;28;20429;-87
2023/05/08 12:30:35;;;;;;;1.33;1.27;;;21.20;74.40;;;;;;5042858;28;20465;-86
2023/05/08 12:33:01;;;;;;;1.63;1.20;;;21.30;74.80;;;;;;5061147;28;20446;-86
2023/05/08 12:35:27;;;;;;;3.00;1.60;;;21.40;72.90;;;;;;5040399;28;20426;-86
2023/05/08 12:37:52;;;;;;;4.00;1.67;;;21.50;71.50;;;;;;5063138;28;20478;-87
2023/05/08 12:40:30;;;;;;;1.53;1.43;;;21.50;72.20;;;;;;5042599;28;20232;-86
2023/05/08 12:42:56;;;;;;;1.47;1.40;;;21.60;71.90;;;;;;5061857;28;20190;-87
2023/05/08 12:45:27;;;;;;;2.47;1.97;;;21.70;74.40;;;;;;5046371;28;20417;-88
2023/05/08 12:47:57;;;;;;;2.40;1.40;;;21.90;73.00;;;;;;5045423;28;20187;-87
2023/05/08 12:50:26;;;;;;;1.20;1.13;;;22.20;74.50;;;;;;5042479;28;20450;-87
2023/05/08 12:52:52;;;;;;;1.67;1.17;;;22.50;71.50;;;;;;5042597;28;20421;-86
2023/05/08 12:55:28;;;;;;;3.07;1.87;;;22.70;72.40;;;;;;5039122;28;20423;-87
2023/05/08 12:58:05;;;;;;;1.80;1.67;;;22.80;70.60;;;;;;5039882;28;20854;-87
2023/05/08 13:00:51;;;;;;;1.53;1.43;;;22.90;69.20;;;;;;5059878;28;20794;-87
2023/05/08 13:03:25;;;;;;;3.37;2.00;;;23.00;68.30;;;;;;5034131;28;20414;-87
2023/05/08 13:05:51;;;;;;;1.20;1.10;;;22.70;65.50;;;;;;5042264;28;20964;-86
2023/05/08 13:08:16;;;;;;;1.47;1.20;;;22.30;66.00;;;;;;5046295;28;20469;-86
2023/05/08 13:10:50;;;;;;;1.63;1.30;;;22.20;69.40;;;;;;5036884;28;20460;-87
2023/05/08 13:13:26;;;;;;;5.47;1.87;;;22.30;67.60;;;;;;5034395;28;20176;-86
2023/05/08 13:15:53;;;;;;;1.00;0.93;;;22.50;66.20;;;;;;5041044;28;20413;-87
2023/05/08 13:18:23;;;;;;;1.90;1.27;;;22.70;65.50;;;;;;5038077;28;20426;-86
2023/05/08 13:20:48;;;;;;;1.53;1.20;;;22.90;66.00;;;;;;5045364;28;20441;-87